sensor_id;sensor_type;location;lat;lon;timestamp;temperature;humidity
40368;DHT22;26075;43.320;21.920;2023-02-01T00:04:46;8.70;61.10
40368;DHT22;26075;43.320;21.920;2023-02-01T00:10:04;8.70;61.50
40368;DHT22;26075;43.320;21.920;2023-02-01T00:15:05;8.50;60.40
40368;DHT22;26075;43.320;21.920;2023-02-01T00:25:28;8.40;61.70
40368;DHT22;26075;43.320;21.920;2023-02-01T00:30:29;8.50;61.70
40368;DHT22;26075;43.320;21.920;2023-02-01T00:35:30;8.10;61.50
40368;DHT22;26075;43.320;21.920;2023-02-01T00:46:09;8.50;60.30
40368;DHT22;26075;43.320;21.920;2023-02-01T00:51:13;8.50;61.10
40368;DHT22;26075;43.320;21.920;2023-02-01T00:56:15;3.90;59.20
40368;DHT22;26075;43.320;21.920;2023-02-01T01:01:32;8.50;61.50
40368;DHT22;26075;43.320;21.920;2023-02-01T01:06:33;8.40;60.40
40368;DHT22;26075;43.320;21.920;2023-02-01T01:11:35;8.30;61.30
40368;DHT22;26075;43.320;21.920;2023-02-01T01:16:35;8.30;60.80
40368;DHT22;26075;43.320;21.920;2023-02-01T01:21:36;8.50;60.90
40368;DHT22;26075;43.320;21.920;2023-02-01T01:26:36;8.40;60.60
40368;DHT22;26075;43.320;21.920;2023-02-01T01:37:15;8.20;60.00
40368;DHT22;26075;43.320;21.920;2023-02-01T01:42:16;8.40;61.50
40368;DHT22;26075;43.320;21.920;2023-02-01T01:47:18;8.30;61.20
40368;DHT22;26075;43.320;21.920;2023-02-01T01:52:18;8.40;61.10
40368;DHT22;26075;43.320;21.920;2023-02-01T01:57:32;8.30;60.90
40368;DHT22;26075;43.320;21.920;2023-02-01T02:02:34;8.30;59.40
40368;DHT22;26075;43.320;21.920;2023-02-01T02:07:36;8.30;60.60
40368;DHT22;26075;43.320;21.920;2023-02-01T02:18:06;8.50;59.80
40368;DHT22;26075;43.320;21.920;2023-02-01T02:39:01;4.10;57.40
40368;DHT22;26075;43.320;21.920;2023-02-01T02:44:10;8.40;59.20
40368;DHT22;26075;43.320;21.920;2023-02-01T02:49:42;8.50;59.30
40368;DHT22;26075;43.320;21.920;2023-02-01T02:54:45;8.10;59.30
40368;DHT22;26075;43.320;21.920;2023-02-01T02:59:47;8.20;60.80
40368;DHT22;26075;43.320;21.920;2023-02-01T03:05:06;8.20;59.90
40368;DHT22;26075;43.320;21.920;2023-02-01T03:10:08;8.30;61.70
40368;DHT22;26075;43.320;21.920;2023-02-01T03:20:49;8.10;60.20
40368;DHT22;26075;43.320;21.920;2023-02-01T03:25:50;8.00;61.20
40368;DHT22;26075;43.320;21.920;2023-02-01T03:30:51;8.10;61.40
40368;DHT22;26075;43.320;21.920;2023-02-01T03:46:52;8.20;60.00
40368;DHT22;26075;43.320;21.920;2023-02-01T03:51:53;7.80;61.10
40368;DHT22;26075;43.320;21.920;2023-02-01T03:56:54;7.90;61.20
40368;DHT22;26075;43.320;21.920;2023-02-01T04:01:56;8.10;61.70
40368;DHT22;26075;43.320;21.920;2023-02-01T04:06:56;8.00;61.50
40368;DHT22;26075;43.320;21.920;2023-02-01T04:17:35;8.00;60.80
40368;DHT22;26075;43.320;21.920;2023-02-01T04:28:13;8.30;61.60
40368;DHT22;26075;43.320;21.920;2023-02-01T04:33:13;8.20;61.70
40368;DHT22;26075;43.320;21.920;2023-02-01T04:38:14;8.00;61.50
40368;DHT22;26075;43.320;21.920;2023-02-01T04:43:15;8.30;61.70
40368;DHT22;26075;43.320;21.920;2023-02-01T04:48:16;8.10;61.60
40368;DHT22;26075;43.320;21.920;2023-02-01T04:53:17;8.10;61.40
40368;DHT22;26075;43.320;21.920;2023-02-01T04:58:18;8.10;61.60
40368;DHT22;26075;43.320;21.920;2023-02-01T05:03:19;8.30;61.60
40368;DHT22;26075;43.320;21.920;2023-02-01T05:08:19;8.20;61.50
40368;DHT22;26075;43.320;21.920;2023-02-01T05:19:00;8.00;60.40
40368;DHT22;26075;43.320;21.920;2023-02-01T05:29:38;8.10;60.80
40368;DHT22;26075;43.320;21.920;2023-02-01T05:40:10;8.20;60.10
40368;DHT22;26075;43.320;21.920;2023-02-01T05:45:11;8.40;61.30
40368;DHT22;26075;43.320;21.920;2023-02-01T05:55:49;8.30;60.20
40368;DHT22;26075;43.320;21.920;2023-02-01T06:00:50;8.70;61.20
40368;DHT22;26075;43.320;21.920;2023-02-01T06:11:29;8.60;60.30
40368;DHT22;26075;43.320;21.920;2023-02-01T06:16:29;8.20;61.10
40368;DHT22;26075;43.320;21.920;2023-02-01T06:21:31;8.50;61.30
40368;DHT22;26075;43.320;21.920;2023-02-01T06:26:33;8.30;61.40
40368;DHT22;26075;43.320;21.920;2023-02-01T06:31:34;8.40;61.40
40368;DHT22;26075;43.320;21.920;2023-02-01T06:47:50;8.20;59.90
40368;DHT22;26075;43.320;21.920;2023-02-01T06:52:51;4.80;59.70
40368;DHT22;26075;43.320;21.920;2023-02-01T06:57:54;8.20;61.70
40368;DHT22;26075;43.320;21.920;2023-02-01T07:02:56;8.10;60.10
40368;DHT22;26075;43.320;21.920;2023-02-01T07:07:57;8.40;61.60
40368;DHT22;26075;43.320;21.920;2023-02-01T07:12:58;8.60;61.60
40368;DHT22;26075;43.320;21.920;2023-02-01T07:17:58;8.20;60.90
40368;DHT22;26075;43.320;21.920;2023-02-01T07:23:04;8.70;61.80
40368;DHT22;26075;43.320;21.920;2023-02-01T07:28:04;8.70;61.30
40368;DHT22;26075;43.320;21.920;2023-02-01T07:33:07;8.40;61.10
40368;DHT22;26075;43.320;21.920;2023-02-01T07:38:07;8.50;60.20
40368;DHT22;26075;43.320;21.920;2023-02-01T07:48:46;8.40;60.50
40368;DHT22;26075;43.320;21.920;2023-02-01T07:53:47;8.70;61.50
40368;DHT22;26075;43.320;21.920;2023-02-01T07:58:48;8.50;61.40
40368;DHT22;26075;43.320;21.920;2023-02-01T08:15:05;8.60;60.40
40368;DHT22;26075;43.320;21.920;2023-02-01T08:20:05;8.70;61.30
40368;DHT22;26075;43.320;21.920;2023-02-01T08:25:06;8.70;60.70
40368;DHT22;26075;43.320;21.920;2023-02-01T08:30:07;9.20;60.30
40368;DHT22;26075;43.320;21.920;2023-02-01T08:35:08;8.90;60.20
40368;DHT22;26075;43.320;21.920;2023-02-01T08:40:09;9.20;60.60
40368;DHT22;26075;43.320;21.920;2023-02-01T08:45:10;9.00;60.40
40368;DHT22;26075;43.320;21.920;2023-02-01T08:55:49;9.20;59.40
40368;DHT22;26075;43.320;21.920;2023-02-01T09:00:50;9.10;59.70
40368;DHT22;26075;43.320;21.920;2023-02-01T09:11:11;9.60;59.70
40368;DHT22;26075;43.320;21.920;2023-02-01T09:21:37;10.00;58.40
40368;DHT22;26075;43.320;21.920;2023-02-01T09:26:38;9.60;59.20
40368;DHT22;26075;43.320;21.920;2023-02-01T09:31:39;9.40;59.40
40368;DHT22;26075;43.320;21.920;2023-02-01T09:47:54;9.70;58.10
40368;DHT22;26075;43.320;21.920;2023-02-01T09:53:04;9.80;59.40
40368;DHT22;26075;43.320;21.920;2023-02-01T10:03:44;9.70;58.50
40368;DHT22;26075;43.320;21.920;2023-02-01T10:14:09;9.40;58.30
40368;DHT22;26075;43.320;21.920;2023-02-01T10:35:16;9.90;57.80
40368;DHT22;26075;43.320;21.920;2023-02-01T10:40:32;9.90;58.20
40368;DHT22;26075;43.320;21.920;2023-02-01T10:45:33;10.30;57.70
40368;DHT22;26075;43.320;21.920;2023-02-01T10:50:49;10.30;58.10
40368;DHT22;26075;43.320;21.920;2023-02-01T10:55:52;10.00;58.30
40368;DHT22;26075;43.320;21.920;2023-02-01T11:00:54;10.30;57.80
40368;DHT22;26075;43.320;21.920;2023-02-01T11:05:56;10.20;58.10
40368;DHT22;26075;43.320;21.920;2023-02-01T11:10:58;10.20;57.50
40368;DHT22;26075;43.320;21.920;2023-02-01T11:15:59;10.30;58.40
40368;DHT22;26075;43.320;21.920;2023-02-01T11:21:09;11.40;58.30
40368;DHT22;26075;43.320;21.920;2023-02-01T11:26:14;10.50;57.40
40368;DHT22;26075;43.320;21.920;2023-02-01T11:31:30;10.30;56.70
40368;DHT22;26075;43.320;21.920;2023-02-01T11:36:31;10.60;56.60
40368;DHT22;26075;43.320;21.920;2023-02-01T11:42:21;10.50;56.50
40368;DHT22;26075;43.320;21.920;2023-02-01T11:47:12;10.70;56.20
40368;DHT22;26075;43.320;21.920;2023-02-01T12:03:01;11.00;55.80
40368;DHT22;26075;43.320;21.920;2023-02-01T12:40:02;13.90;56.00
40368;DHT22;26075;43.320;21.920;2023-02-01T12:45:15;14.90;54.90
40368;DHT22;26075;43.320;21.920;2023-02-01T12:50:22;16.20;53.60
40368;DHT22;26075;43.320;21.920;2023-02-01T12:55:34;16.20;53.50
40368;DHT22;26075;43.320;21.920;2023-02-01T13:06:10;16.50;52.10
40368;DHT22;26075;43.320;21.920;2023-02-01T13:16:43;15.70;52.10
40368;DHT22;26075;43.320;21.920;2023-02-01T13:21:46;15.20;53.60
40368;DHT22;26075;43.320;21.920;2023-02-01T13:26:47;15.10;53.70
40368;DHT22;26075;43.320;21.920;2023-02-01T13:42:47;14.40;53.40
40368;DHT22;26075;43.320;21.920;2023-02-01T13:53:46;13.70;53.40
40368;DHT22;26075;43.320;21.920;2023-02-01T13:58:48;13.50;53.00
40368;DHT22;26075;43.320;21.920;2023-02-01T14:09:34;13.10;53.10
40368;DHT22;26075;43.320;21.920;2023-02-01T14:25:22;13.00;52.70
40368;DHT22;26075;43.320;21.920;2023-02-01T14:30:23;12.60;52.90
40368;DHT22;26075;43.320;21.920;2023-02-01T14:51:40;12.40;52.90
40368;DHT22;26075;43.320;21.920;2023-02-01T15:07:34;12.20;52.50
40368;DHT22;26075;43.320;21.920;2023-02-01T15:12:34;12.20;52.60
40368;DHT22;26075;43.320;21.920;2023-02-01T15:17:40;12.00;52.60
40368;DHT22;26075;43.320;21.920;2023-02-01T15:22:41;12.00;52.50
40368;DHT22;26075;43.320;21.920;2023-02-01T15:27:42;12.20;52.40
40368;DHT22;26075;43.320;21.920;2023-02-01T15:48:54;15.70;52.00
40368;DHT22;26075;43.320;21.920;2023-02-01T15:54:00;16.40;51.90
40368;DHT22;26075;43.320;21.920;2023-02-01T15:59:02;16.80;50.40
40368;DHT22;26075;43.320;21.920;2023-02-01T16:14:49;19.60;55.50
40368;DHT22;26075;43.320;21.920;2023-02-01T16:19:50;13.60;52.90
40368;DHT22;26075;43.320;21.920;2023-02-01T16:24:50;13.10;53.10
40368;DHT22;26075;43.320;21.920;2023-02-01T16:29:51;12.80;53.10
40368;DHT22;26075;43.320;21.920;2023-02-01T16:34:51;12.60;53.30
40368;DHT22;26075;43.320;21.920;2023-02-01T16:45:16;12.40;53.20
40368;DHT22;26075;43.320;21.920;2023-02-01T16:50:23;12.30;53.30
40368;DHT22;26075;43.320;21.920;2023-02-01T16:55:24;12.00;52.90
40368;DHT22;26075;43.320;21.920;2023-02-01T17:00:26;11.80;53.60
40368;DHT22;26075;43.320;21.920;2023-02-01T17:05:27;11.70;54.00
40368;DHT22;26075;43.320;21.920;2023-02-01T17:10:29;11.50;53.90
40368;DHT22;26075;43.320;21.920;2023-02-01T17:21:08;11.30;53.60
40368;DHT22;26075;43.320;21.920;2023-02-01T17:26:09;11.50;53.90
40368;DHT22;26075;43.320;21.920;2023-02-01T17:31:12;11.30;53.80
40368;DHT22;26075;43.320;21.920;2023-02-01T17:41:38;11.10;53.70
40368;DHT22;26075;43.320;21.920;2023-02-01T17:46:43;11.00;53.20
40368;DHT22;26075;43.320;21.920;2023-02-01T17:51:43;10.70;54.20
40368;DHT22;26075;43.320;21.920;2023-02-01T17:56:44;11.20;54.60
40368;DHT22;26075;43.320;21.920;2023-02-01T18:07:04;10.80;53.10
40368;DHT22;26075;43.320;21.920;2023-02-01T18:12:14;10.80;54.10
40368;DHT22;26075;43.320;21.920;2023-02-01T18:17:17;10.60;53.70
40368;DHT22;26075;43.320;21.920;2023-02-01T18:22:18;10.90;53.90
40368;DHT22;26075;43.320;21.920;2023-02-01T18:27:21;10.60;53.60
40368;DHT22;26075;43.320;21.920;2023-02-01T18:43:22;10.40;53.90
40368;DHT22;26075;43.320;21.920;2023-02-01T18:53:48;10.90;53.60
40368;DHT22;26075;43.320;21.920;2023-02-01T18:59:04;10.70;53.80
40368;DHT22;26075;43.320;21.920;2023-02-01T19:04:05;10.80;53.50
40368;DHT22;26075;43.320;21.920;2023-02-01T19:09:05;10.60;53.70
40368;DHT22;26075;43.320;21.920;2023-02-01T19:14:06;10.80;54.00
40368;DHT22;26075;43.320;21.920;2023-02-01T19:19:07;10.70;53.90
40368;DHT22;26075;43.320;21.920;2023-02-01T19:29:46;11.00;53.30
40368;DHT22;26075;43.320;21.920;2023-02-01T19:34:46;10.90;53.40
40368;DHT22;26075;43.320;21.920;2023-02-01T19:39:50;10.90;53.50
40368;DHT22;26075;43.320;21.920;2023-02-01T19:44:50;10.60;53.50
40368;DHT22;26075;43.320;21.920;2023-02-01T19:49:58;10.70;53.60
40368;DHT22;26075;43.320;21.920;2023-02-01T20:00:03;10.90;53.20
40368;DHT22;26075;43.320;21.920;2023-02-01T20:16:13;10.80;54.00
40368;DHT22;26075;43.320;21.920;2023-02-01T20:21:13;10.70;54.10
40368;DHT22;26075;43.320;21.920;2023-02-01T20:31:34;10.70;53.60
40368;DHT22;26075;43.320;21.920;2023-02-01T20:36:35;10.40;54.20
40368;DHT22;26075;43.320;21.920;2023-02-01T20:41:41;10.80;54.40
40368;DHT22;26075;43.320;21.920;2023-02-01T20:46:42;10.60;54.10
40368;DHT22;26075;43.320;21.920;2023-02-01T20:51:46;10.60;54.30
40368;DHT22;26075;43.320;21.920;2023-02-01T20:56:47;10.60;54.20
40368;DHT22;26075;43.320;21.920;2023-02-01T21:01:48;10.40;54.30
40368;DHT22;26075;43.320;21.920;2023-02-01T21:12:13;10.70;54.30
40368;DHT22;26075;43.320;21.920;2023-02-01T21:17:13;10.10;54.30
40368;DHT22;26075;43.320;21.920;2023-02-01T21:22:29;10.50;54.50
40368;DHT22;26075;43.320;21.920;2023-02-01T21:27:30;10.30;54.40
40368;DHT22;26075;43.320;21.920;2023-02-01T21:32:30;10.40;54.80
40368;DHT22;26075;43.320;21.920;2023-02-01T21:37:31;10.60;54.60
40368;DHT22;26075;43.320;21.920;2023-02-01T21:42:32;10.50;54.60
40368;DHT22;26075;43.320;21.920;2023-02-01T21:47:33;10.10;54.60
40368;DHT22;26075;43.320;21.920;2023-02-01T21:52:33;10.50;54.50
40368;DHT22;26075;43.320;21.920;2023-02-01T22:22:47;10.10;60.90
40368;DHT22;26075;43.320;21.920;2023-02-01T22:49:44;9.80;69.70
40368;DHT22;26075;43.320;21.920;2023-02-01T23:20:07;9.90;69.70
40368;DHT22;26075;43.320;21.920;2023-02-01T23:30:11;10.00;69.90
